Terminal Aerodrome Forecast
Issued by NWS

Home | Current Version | Previous Version | Text Only | Print | Product List | Glossary Off
Versions: 1 2 3 4 5 6 7 8 9 10 11 12 13 14 15 16

000
FTUS45 KGGW 261100 RRA
TAFSDY
TAF
KSDY 261142Z 2612/2712 31009KT P6SM BKN010
     FM261500 35008KT P6SM BKN080
     FM270200 36009KT 6SM -SHRA OVC050
      AMD LTD TO CLD VIS AND WIND=

USA.gov is the U.S. government's official web portal to all federal, state and local government web resources and services.